EUS1463 EGPF-LFPO
Flight info
| Callsign | EUS1463 |
|---|---|
| Flight time | N/A |
| Altitude | 37000 |
| Route | NORBO T256 RIPNO DCT AKOMU DCT VAMEB UL612 HON UN859 LGL H20 BOBSA |
| Aircraft | B738/M-SDE2E3FGHIRWXY/LB1 |
Departure
| Time | 2026-05-01 14:24 |
|---|---|
| Airport | Glasgow Airport (EGPF) |
Arrival
| Time | N/A |
|---|---|
| Airport | Paris-Orly Airport (LFPO) |
| Time | Latitude | Longitude | Altitude | Speed | Heading |
|---|---|---|---|---|---|
| 2026-05-01 13:36 | 55.86579 | -4.43411 | 28 ft | 0 kts | 74° |
| 2026-05-01 13:58 | 55.86578 | -4.43420 | 28 ft | 3 kts | 74° |
| 2026-05-01 13:59 | 55.86572 | -4.43453 | 28 ft | 3 kts | 74° |
| 2026-05-01 13:59 | 55.86567 | -4.43484 | 28 ft | 3 kts | 74° |
| 2026-05-01 13:59 | 55.86558 | -4.43513 | 28 ft | 3 kts | 19° |
| 2026-05-01 13:59 | 55.86547 | -4.43516 | 28 ft | 0 kts | 348° |
| 2026-05-01 14:18 | 55.86549 | -4.43517 | 28 ft | 1 kts | 340° |
| 2026-05-01 14:19 | 55.86568 | -4.43531 | 28 ft | 4 kts | 341° |
| 2026-05-01 14:19 | 55.86604 | -4.43552 | 28 ft | 7 kts | 340° |
| 2026-05-01 14:19 | 55.86654 | -4.43584 | 28 ft | 9 kts | 342° |
| 2026-05-01 14:19 | 55.86715 | -4.43614 | 28 ft | 10 kts | 354° |
| 2026-05-01 14:20 | 55.86762 | -4.43550 | 28 ft | 9 kts | 68° |
| 2026-05-01 14:20 | 55.86801 | -4.43327 | 28 ft | 11 kts | 73° |
| 2026-05-01 14:20 | 55.86825 | -4.43186 | 28 ft | 13 kts | 73° |
| 2026-05-01 14:21 | 55.86859 | -4.43011 | 28 ft | 17 kts | 59° |
| 2026-05-01 14:21 | 55.86963 | -4.42892 | 28 ft | 20 kts | 26° |
| 2026-05-01 14:21 | 55.87098 | -4.42793 | 28 ft | 22 kts | 21° |
| 2026-05-01 14:22 | 55.87365 | -4.42609 | 28 ft | 19 kts | 26° |
| 2026-05-01 14:22 | 55.87457 | -4.42473 | 28 ft | 17 kts | 46° |
| 2026-05-01 14:22 | 55.87534 | -4.42332 | 28 ft | 15 kts | 46° |
| 2026-05-01 14:22 | 55.87602 | -4.42206 | 28 ft | 13 kts | 42° |
| 2026-05-01 14:23 | 55.87682 | -4.42163 | 28 ft | 12 kts | 345° |
| 2026-05-01 14:23 | 55.87743 | -4.42239 | 28 ft | 10 kts | 299° |
| 2026-05-01 14:23 | 55.87723 | -4.42332 | 28 ft | 8 kts | 224° |
| 2026-05-01 14:23 | 55.87546 | -4.42659 | 28 ft | 80 kts | 227° |
| 2026-05-01 14:24 | 55.86967 | -4.43736 | 40 ft | 157 kts | 225° |
| 2026-05-01 14:24 | 55.86139 | -4.45282 | 581 ft | 189 kts | 226° |
| 2026-05-01 14:24 | 55.85191 | -4.47057 | 1481 ft | 200 kts | 225° |
| 2026-05-01 14:24 | 55.84274 | -4.48887 | 2485 ft | 208 kts | 227° |
| 2026-05-01 14:25 | 55.83246 | -4.50919 | 2857 ft | 230 kts | 225° |
| 2026-05-01 14:25 | 55.82090 | -4.53124 | 3192 ft | 254 kts | 223° |
| 2026-05-01 14:25 | 55.80841 | -4.55344 | 4159 ft | 251 kts | 223° |
| 2026-05-01 14:25 | 55.79574 | -4.57489 | 5064 ft | 254 kts | 221° |
| 2026-05-01 14:26 | 55.78287 | -4.59622 | 5671 ft | 254 kts | 221° |
| 2026-05-01 14:26 | 55.75634 | -4.63838 | 5982 ft | 261 kts | 221° |
| 2026-05-01 14:26 | 55.74362 | -4.66108 | 5990 ft | 258 kts | 224° |
| 2026-05-01 14:27 | 55.73134 | -4.68415 | 5980 ft | 256 kts | 224° |
| 2026-05-01 14:27 | 55.71893 | -4.70658 | 5959 ft | 254 kts | 223° |
| 2026-05-01 14:27 | 55.70637 | -4.72838 | 5969 ft | 252 kts | 222° |
| 2026-05-01 14:28 | 55.67610 | -4.75666 | 5970 ft | 250 kts | 189° |
| 2026-05-01 14:28 | 55.65875 | -4.75922 | 5978 ft | 251 kts | 182° |
| 2026-05-01 14:28 | 55.64123 | -4.75988 | 5976 ft | 253 kts | 181° |
| 2026-05-01 14:28 | 55.62381 | -4.76046 | 5977 ft | 255 kts | 182° |
| 2026-05-01 14:29 | 55.60605 | -4.76075 | 5963 ft | 256 kts | 175° |
| 2026-05-01 14:29 | 55.58911 | -4.75108 | 6013 ft | 261 kts | 152° |
| 2026-05-01 14:30 | 55.54669 | -4.68894 | 8338 ft | 267 kts | 142° |
| 2026-05-01 14:30 | 55.53257 | -4.66719 | 9158 ft | 271 kts | 143° |
| 2026-05-01 14:30 | 55.51818 | -4.64554 | 9959 ft | 274 kts | 144° |
| 2026-05-01 14:31 | 55.48745 | -4.60103 | 10742 ft | 307 kts | 146° |
| 2026-05-01 14:31 | 55.47026 | -4.57723 | 10926 ft | 329 kts | 146° |
| 2026-05-01 14:31 | 55.45156 | -4.55176 | 11111 ft | 350 kts | 146° |
| 2026-05-01 14:31 | 55.43214 | -4.52490 | 11608 ft | 358 kts | 145° |
| 2026-05-01 14:32 | 55.41264 | -4.49724 | 12333 ft | 361 kts | 144° |
| 2026-05-01 14:32 | 55.39322 | -4.46913 | 13034 ft | 364 kts | 144° |
| 2026-05-01 14:32 | 55.37366 | -4.44046 | 13712 ft | 368 kts | 144° |
| 2026-05-01 14:32 | 55.35382 | -4.41170 | 14291 ft | 372 kts | 144° |
| 2026-05-01 14:33 | 55.33360 | -4.38295 | 14880 ft | 376 kts | 144° |
| 2026-05-01 14:33 | 55.31312 | -4.35429 | 15567 ft | 377 kts | 145° |
| 2026-05-01 14:33 | 55.29268 | -4.32599 | 16198 ft | 381 kts | 145° |
| 2026-05-01 14:33 | 55.27177 | -4.29723 | 16793 ft | 384 kts | 145° |
| 2026-05-01 14:34 | 55.25057 | -4.26838 | 17383 ft | 387 kts | 145° |
| 2026-05-01 14:34 | 55.22925 | -4.23929 | 17971 ft | 391 kts | 144° |
| 2026-05-01 14:34 | 55.20786 | -4.20957 | 18564 ft | 394 kts | 144° |
| 2026-05-01 14:34 | 55.18645 | -4.17927 | 19100 ft | 397 kts | 143° |
| 2026-05-01 14:35 | 55.16547 | -4.14759 | 19649 ft | 400 kts | 139° |
| 2026-05-01 14:35 | 55.14643 | -4.11176 | 20167 ft | 404 kts | 134° |
| 2026-05-01 14:35 | 55.12793 | -4.07454 | 20653 ft | 407 kts | 135° |
| 2026-05-01 14:35 | 55.10906 | -4.03750 | 21124 ft | 409 kts | 135° |
| 2026-05-01 14:36 | 55.08969 | -4.00080 | 21597 ft | 412 kts | 136° |
| 2026-05-01 14:36 | 55.07020 | -3.96493 | 22051 ft | 413 kts | 137° |
| 2026-05-01 14:36 | 55.05020 | -3.92875 | 22497 ft | 416 kts | 137° |
| 2026-05-01 14:36 | 55.02994 | -3.89256 | 22933 ft | 418 kts | 138° |
| 2026-05-01 14:37 | 55.00948 | -3.85643 | 23365 ft | 420 kts | 138° |
| 2026-05-01 14:37 | 54.98898 | -3.81990 | 23774 ft | 423 kts | 137° |
| 2026-05-01 14:37 | 54.96839 | -3.78263 | 23957 ft | 431 kts | 136° |
| 2026-05-01 14:37 | 54.94731 | -3.74525 | 24214 ft | 433 kts | 141° |
| 2026-05-01 14:38 | 54.92334 | -3.71397 | 24628 ft | 430 kts | 152° |
| 2026-05-01 14:38 | 54.89766 | -3.68757 | 25061 ft | 430 kts | 151° |
| 2026-05-01 14:38 | 54.87242 | -3.66054 | 25394 ft | 433 kts | 150° |
| 2026-05-01 14:38 | 54.84685 | -3.63276 | 25715 ft | 436 kts | 150° |
| 2026-05-01 14:39 | 54.82106 | -3.60480 | 26064 ft | 438 kts | 150° |
| 2026-05-01 14:39 | 54.79511 | -3.57686 | 26410 ft | 440 kts | 150° |
| 2026-05-01 14:39 | 54.76901 | -3.54897 | 26742 ft | 442 kts | 150° |
| 2026-05-01 14:39 | 54.74276 | -3.52112 | 27066 ft | 444 kts | 151° |
| 2026-05-01 14:40 | 54.71635 | -3.49323 | 27387 ft | 446 kts | 151° |
| 2026-05-01 14:40 | 54.68975 | -3.46521 | 27708 ft | 448 kts | 151° |
| 2026-05-01 14:40 | 54.66342 | -3.43755 | 27995 ft | 450 kts | 151° |
| 2026-05-01 14:40 | 54.63669 | -3.40949 | 28348 ft | 449 kts | 151° |
| 2026-05-01 14:41 | 54.61006 | -3.38156 | 28783 ft | 448 kts | 151° |
| 2026-05-01 14:41 | 54.58346 | -3.35369 | 29251 ft | 446 kts | 151° |
| 2026-05-01 14:41 | 54.55700 | -3.32601 | 29654 ft | 444 kts | 151° |
| 2026-05-01 14:41 | 54.53059 | -3.29845 | 30029 ft | 444 kts | 151° |
| 2026-05-01 14:42 | 54.50417 | -3.27094 | 30389 ft | 443 kts | 151° |
| 2026-05-01 14:42 | 54.47788 | -3.24359 | 30693 ft | 443 kts | 151° |
| 2026-05-01 14:42 | 54.45148 | -3.21617 | 30963 ft | 443 kts | 151° |
| 2026-05-01 14:42 | 54.42506 | -3.18881 | 31225 ft | 444 kts | 151° |
| 2026-05-01 14:43 | 54.39894 | -3.16184 | 31440 ft | 445 kts | 151° |
| 2026-05-01 14:43 | 54.37241 | -3.13451 | 31738 ft | 445 kts | 151° |
| 2026-05-01 14:43 | 54.34586 | -3.10723 | 32073 ft | 444 kts | 151° |
| 2026-05-01 14:43 | 54.31940 | -3.08012 | 32368 ft | 443 kts | 152° |
| 2026-05-01 14:44 | 54.29293 | -3.05311 | 32636 ft | 444 kts | 152° |
| 2026-05-01 14:44 | 54.23978 | -2.99945 | 33208 ft | 443 kts | 152° |
| 2026-05-01 14:44 | 54.21325 | -2.97253 | 33486 ft | 443 kts | 151° |
| 2026-05-01 14:45 | 54.18689 | -2.94538 | 33750 ft | 443 kts | 151° |
| 2026-05-01 14:45 | 54.13241 | -2.89920 | 34257 ft | 440 kts | 159° |
| 2026-05-01 14:45 | 54.10419 | -2.87931 | 34485 ft | 439 kts | 160° |
| 2026-05-01 14:46 | 54.07587 | -2.85966 | 34725 ft | 439 kts | 160° |
| 2026-05-01 14:46 | 54.01964 | -2.81963 | 35178 ft | 438 kts | 159° |
| 2026-05-01 14:46 | 53.99163 | -2.79917 | 35398 ft | 438 kts | 159° |
| 2026-05-01 14:47 | 53.96361 | -2.77905 | 35619 ft | 437 kts | 159° |
| 2026-05-01 14:47 | 53.93560 | -2.75900 | 35869 ft | 436 kts | 159° |
| 2026-05-01 14:47 | 53.90777 | -2.73888 | 36116 ft | 435 kts | 159° |
| 2026-05-01 14:48 | 53.85261 | -2.69878 | 36499 ft | 435 kts | 159° |
| 2026-05-01 14:48 | 53.82469 | -2.67884 | 36696 ft | 434 kts | 159° |
| 2026-05-01 14:48 | 53.76926 | -2.63875 | 37104 ft | 433 kts | 159° |
| 2026-05-01 14:49 | 53.65795 | -2.55952 | 37144 ft | 437 kts | 159° |
| 2026-05-01 14:50 | 53.56198 | -2.49053 | 37136 ft | 437 kts | 159° |
| 2026-05-01 14:51 | 53.47780 | -2.43124 | 37122 ft | 437 kts | 159° |
| 2026-05-01 14:52 | 53.39392 | -2.37099 | 37130 ft | 437 kts | 159° |
| 2026-05-01 14:53 | 53.31020 | -2.31304 | 37126 ft | 436 kts | 160° |
| 2026-05-01 14:53 | 53.25416 | -2.27393 | 37133 ft | 436 kts | 159° |
| 2026-05-01 14:54 | 53.19814 | -2.23521 | 37134 ft | 435 kts | 160° |
| 2026-05-01 14:54 | 53.14252 | -2.19706 | 37133 ft | 435 kts | 159° |
| 2026-05-01 14:55 | 53.08687 | -2.15739 | 37130 ft | 435 kts | 159° |
| 2026-05-01 14:55 | 53.03121 | -2.11783 | 37135 ft | 435 kts | 159° |
| 2026-05-01 14:56 | 52.97535 | -2.07903 | 37128 ft | 435 kts | 159° |
| 2026-05-01 14:56 | 52.91942 | -2.04069 | 37136 ft | 435 kts | 160° |
| 2026-05-01 14:57 | 52.86347 | -2.00254 | 37128 ft | 435 kts | 160° |
| 2026-05-01 14:57 | 52.77996 | -1.94583 | 37131 ft | 434 kts | 160° |
| 2026-05-01 14:58 | 52.72403 | -1.90792 | 37122 ft | 434 kts | 160° |
| 2026-05-01 14:58 | 52.66810 | -1.87014 | 37134 ft | 434 kts | 160° |
| 2026-05-01 14:59 | 52.61211 | -1.83244 | 37129 ft | 435 kts | 160° |
| 2026-05-01 14:59 | 52.55650 | -1.79514 | 37136 ft | 435 kts | 160° |
| 2026-05-01 15:00 | 52.47225 | -1.73905 | 37133 ft | 436 kts | 160° |
| 2026-05-01 15:01 | 52.41593 | -1.70208 | 37134 ft | 436 kts | 160° |
| 2026-05-01 15:01 | 52.35983 | -1.66459 | 37129 ft | 436 kts | 160° |
| 2026-05-01 15:02 | 52.30304 | -1.63227 | 37138 ft | 435 kts | 163° |
| 2026-05-01 15:02 | 52.24674 | -1.60305 | 37123 ft | 435 kts | 164° |
| 2026-05-01 15:03 | 52.19900 | -1.57870 | 37129 ft | 435 kts | 164° |
| 2026-05-01 15:03 | 52.14144 | -1.54916 | 37134 ft | 435 kts | 164° |
| 2026-05-01 15:04 | 52.07495 | -1.51487 | 37125 ft | 435 kts | 164° |
| 2026-05-01 15:04 | 52.02672 | -1.49006 | 37116 ft | 435 kts | 164° |
| 2026-05-01 15:05 | 51.96989 | -1.46102 | 37113 ft | 435 kts | 164° |
| 2026-05-01 15:05 | 51.91267 | -1.43189 | 37128 ft | 435 kts | 164° |
| 2026-05-01 15:06 | 51.85538 | -1.40291 | 37133 ft | 435 kts | 164° |
| 2026-05-01 15:06 | 51.79774 | -1.37380 | 37130 ft | 436 kts | 163° |
| 2026-05-01 15:07 | 51.73993 | -1.34432 | 37127 ft | 436 kts | 164° |
| 2026-05-01 15:07 | 51.68254 | -1.31554 | 37130 ft | 436 kts | 164° |
| 2026-05-01 15:08 | 51.62458 | -1.28625 | 37128 ft | 437 kts | 163° |
| 2026-05-01 15:08 | 51.56684 | -1.25693 | 37130 ft | 437 kts | 164° |
| 2026-05-01 15:09 | 51.50908 | -1.22777 | 37136 ft | 437 kts | 163° |
| 2026-05-01 15:09 | 51.45273 | -1.19248 | 37135 ft | 439 kts | 155° |
| 2026-05-01 15:10 | 51.39816 | -1.14958 | 37136 ft | 439 kts | 156° |
| 2026-05-01 15:10 | 51.31566 | -1.08879 | 37149 ft | 439 kts | 157° |
| 2026-05-01 15:11 | 51.23324 | -1.02873 | 37162 ft | 439 kts | 156° |
| 2026-05-01 15:12 | 51.17820 | -0.98790 | 37160 ft | 439 kts | 156° |
| 2026-05-01 15:12 | 51.09575 | -0.92792 | 37155 ft | 439 kts | 157° |
| 2026-05-01 15:14 | 50.95656 | -0.82853 | 37173 ft | 439 kts | 157° |
| 2026-05-01 15:14 | 50.87370 | -0.76951 | 37187 ft | 439 kts | 156° |
| 2026-05-01 15:15 | 50.76973 | -0.67026 | 37186 ft | 441 kts | 147° |
| 2026-05-01 15:16 | 50.66855 | -0.56439 | 37191 ft | 441 kts | 148° |
| 2026-05-01 15:18 | 50.61242 | -0.50776 | 37195 ft | 441 kts | 149° |
| 2026-05-01 15:19 | 50.55006 | -0.44525 | 37202 ft | 441 kts | 149° |
| 2026-05-01 15:19 | 50.47265 | -0.36770 | 37207 ft | 442 kts | 149° |
| 2026-05-01 15:20 | 50.39467 | -0.28984 | 37201 ft | 444 kts | 149° |
| 2026-05-01 15:21 | 50.34254 | -0.23804 | 37214 ft | 444 kts | 149° |
| 2026-05-01 15:21 | 50.29100 | -0.18700 | 37210 ft | 445 kts | 149° |
| 2026-05-01 15:22 | 50.21674 | -0.11378 | 37206 ft | 446 kts | 149° |
| 2026-05-01 15:22 | 50.16415 | -0.06230 | 37196 ft | 447 kts | 149° |
| 2026-05-01 15:23 | 50.11129 | -0.01110 | 37210 ft | 447 kts | 153° |
| 2026-05-01 15:23 | 50.05338 | 0.02076 | 37222 ft | 445 kts | 167° |
| 2026-05-01 15:24 | 49.99316 | 0.04339 | 37209 ft | 445 kts | 167° |
| 2026-05-01 15:24 | 49.93297 | 0.06647 | 37207 ft | 446 kts | 167° |
| 2026-05-01 15:25 | 49.87279 | 0.09001 | 37214 ft | 446 kts | 166° |
| 2026-05-01 15:25 | 49.81296 | 0.11332 | 37215 ft | 446 kts | 167° |
| 2026-05-01 15:26 | 49.75268 | 0.13654 | 37214 ft | 446 kts | 167° |
| 2026-05-01 15:26 | 49.69241 | 0.15992 | 37210 ft | 447 kts | 167° |
| 2026-05-01 15:27 | 49.63218 | 0.18399 | 37210 ft | 448 kts | 166° |
| 2026-05-01 15:28 | 49.54229 | 0.22122 | 37212 ft | 448 kts | 166° |
| 2026-05-01 15:28 | 49.48201 | 0.24571 | 37209 ft | 449 kts | 167° |
| 2026-05-01 15:29 | 49.39131 | 0.28198 | 37188 ft | 449 kts | 167° |
| 2026-05-01 15:30 | 49.27004 | 0.33098 | 36331 ft | 456 kts | 166° |
| 2026-05-01 15:31 | 49.14694 | 0.38431 | 33423 ft | 465 kts | 166° |
| 2026-05-01 15:31 | 49.08499 | 0.40967 | 32067 ft | 460 kts | 166° |
| 2026-05-01 15:32 | 49.02270 | 0.43513 | 30296 ft | 466 kts | 165° |
| 2026-05-01 15:32 | 49.02027 | 0.43612 | 30217 ft | 466 kts | 165° |
| 2026-05-01 15:33 | 48.94138 | 0.46766 | 27651 ft | 466 kts | 165° |
| 2026-05-01 15:34 | 48.84980 | 0.50530 | 25637 ft | 449 kts | 164° |